createdAt,value
2022-10-12T00:01:05.812Z,4.80
2022-10-12T00:03:33.832Z,5.70
2022-10-12T00:06:08.065Z,4.95
2022-10-12T00:11:02.393Z,4.70
2022-10-12T00:13:28.903Z,4.97
2022-10-12T00:15:55.387Z,5.05
2022-10-12T00:18:22.005Z,5.32
2022-10-12T00:20:48.557Z,5.72
2022-10-12T00:23:15.164Z,5.53
2022-10-12T00:25:42.535Z,5.13
2022-10-12T00:28:09.093Z,5.35
2022-10-12T00:30:40.696Z,6.03
2022-10-12T00:33:07.230Z,5.45
2022-10-12T00:35:33.734Z,4.80
2022-10-12T00:38:00.202Z,4.90
2022-10-12T00:40:26.799Z,5.18
2022-10-12T00:42:53.293Z,5.93
2022-10-12T00:45:19.749Z,5.43
2022-10-12T00:47:56.711Z,5.13
2022-10-12T00:50:33.047Z,5.97
2022-10-12T00:53:04.193Z,5.78
2022-10-12T00:55:36.892Z,4.85
2022-10-12T00:58:05.640Z,5.68
2022-10-12T01:00:32.190Z,5.20
2022-10-12T01:02:59.097Z,5.15
2022-10-12T01:05:25.779Z,5.57
2022-10-12T01:07:52.307Z,5.53
2022-10-12T01:10:18.995Z,5.45
2022-10-12T01:12:48.562Z,5.32
2022-10-12T01:15:15.680Z,5.10
2022-10-12T01:18:15.394Z,5.50
2022-10-12T01:20:47.976Z,5.82
2022-10-12T01:23:17.599Z,5.80
2022-10-12T01:26:35.267Z,6.00
2022-10-12T01:29:13.646Z,4.60
2022-10-12T01:32:06.408Z,5.22
2022-10-12T01:35:01.196Z,5.70
2022-10-12T01:37:44.101Z,5.07
2022-10-12T01:40:20.956Z,4.90
2022-10-12T01:42:48.399Z,4.90
2022-10-12T01:45:18.081Z,5.68
2022-10-12T01:47:49.527Z,5.10
2022-10-12T01:50:17.683Z,5.63
2022-10-12T01:53:11.951Z,5.53
2022-10-12T01:56:02.724Z,5.53
2022-10-12T01:59:07.476Z,5.43
2022-10-12T02:01:45.833Z,4.80
2022-10-12T02:04:36.698Z,5.47
2022-10-12T02:07:17.146Z,4.60
2022-10-12T02:09:44.458Z,5.50
2022-10-12T02:12:19.397Z,6.68
2022-10-12T02:14:53.246Z,5.40
2022-10-12T02:17:22.974Z,6.85
2022-10-12T02:19:56.171Z,5.45
2022-10-12T02:22:26.345Z,5.40
2022-10-12T02:24:57.971Z,5.30
2022-10-12T02:27:26.154Z,6.00
2022-10-12T02:29:53.133Z,6.28
2022-10-12T02:32:30.115Z,5.93
2022-10-12T02:35:16.265Z,5.82
2022-10-12T02:38:08.718Z,6.20
2022-10-12T02:40:41.334Z,5.82
2022-10-12T02:43:13.939Z,6.50
2022-10-12T02:45:44.785Z,5.45
2022-10-12T02:48:15.883Z,5.65
2022-10-12T02:50:43.795Z,6.43
2022-10-12T02:53:10.443Z,6.25
2022-10-12T02:56:01.302Z,6.43
2022-10-12T02:58:27.859Z,5.32
2022-10-12T03:00:54.398Z,5.82
2022-10-12T03:03:21.595Z,6.30
2022-10-12T03:05:48.081Z,6.35
2022-10-12T03:08:14.593Z,5.60
2022-10-12T03:10:41.119Z,5.35
2022-10-12T03:13:07.715Z,6.80
2022-10-12T03:15:34.209Z,5.97
2022-10-12T03:18:00.694Z,5.65
2022-10-12T03:20:27.252Z,5.50
2022-10-12T03:22:53.704Z,5.88
2022-10-12T03:25:20.224Z,5.80
2022-10-12T03:27:46.767Z,6.30
2022-10-12T03:30:13.690Z,7.07
2022-10-12T03:32:40.528Z,6.55
2022-10-12T03:35:07.986Z,5.80
2022-10-12T03:37:34.651Z,7.13
2022-10-12T03:40:01.138Z,6.32
2022-10-12T03:42:27.660Z,6.20
2022-10-12T03:44:54.548Z,6.35
2022-10-12T03:47:21.111Z,5.88
2022-10-12T03:49:47.749Z,6.63
2022-10-12T03:52:14.268Z,6.78
2022-10-12T03:54:40.748Z,6.75
2022-10-12T03:57:07.324Z,5.70
2022-10-12T03:59:33.879Z,5.97
2022-10-12T04:02:00.408Z,5.88
2022-10-12T04:04:26.941Z,6.72
2022-10-12T04:06:53.667Z,6.50
2022-10-12T04:09:20.634Z,6.50
2022-10-12T04:11:47.170Z,5.75
2022-10-12T04:14:13.648Z,6.75
2022-10-12T04:16:40.457Z,7.47
2022-10-12T04:19:06.933Z,7.10
2022-10-12T04:21:33.468Z,6.97
2022-10-12T04:24:00.036Z,6.35
2022-10-12T04:26:26.587Z,7.43
2022-10-12T04:28:53.125Z,7.20
2022-10-12T04:31:19.756Z,6.85
2022-10-12T04:33:46.258Z,6.88
2022-10-12T04:36:12.789Z,6.68
2022-10-12T04:38:39.314Z,6.35
2022-10-12T04:41:05.925Z,6.10
2022-10-12T04:43:32.454Z,6.28
2022-10-12T04:46:00.260Z,5.88
2022-10-12T04:48:28.106Z,6.50
2022-10-12T04:50:54.657Z,5.82
2022-10-12T04:53:21.253Z,6.78
2022-10-12T04:55:47.799Z,6.88
2022-10-12T04:58:14.347Z,7.18
2022-10-12T05:00:41.054Z,6.28
2022-10-12T05:03:07.609Z,7.35
2022-10-12T05:05:37.264Z,6.75
2022-10-12T05:08:04.904Z,6.65
2022-10-12T05:10:31.680Z,6.50
2022-10-12T05:12:58.694Z,7.43
2022-10-12T05:15:25.412Z,6.88
2022-10-12T05:17:51.890Z,7.07
2022-10-12T05:20:18.446Z,6.82
2022-10-12T05:22:45.027Z,7.25
2022-10-12T05:25:11.521Z,6.22
2022-10-12T05:27:38.316Z,7.45
2022-10-12T05:30:06.351Z,6.88
2022-10-12T05:32:32.972Z,7.22
2022-10-12T05:35:00.039Z,7.00
2022-10-12T05:37:26.580Z,6.90
2022-10-12T05:39:53.130Z,6.53
2022-10-12T05:42:19.640Z,7.10
2022-10-12T05:44:46.174Z,6.68
2022-10-12T05:47:12.643Z,7.40
2022-10-12T05:49:39.235Z,7.90
2022-10-12T05:52:05.735Z,7.20
2022-10-12T05:54:32.222Z,7.93
2022-10-12T05:56:58.915Z,8.48
2022-10-12T05:59:25.415Z,7.88
2022-10-12T06:01:51.973Z,8.75
2022-10-12T06:04:18.561Z,7.95
2022-10-12T06:06:45.122Z,7.50
2022-10-12T06:09:12.831Z,9.45
2022-10-12T06:11:39.640Z,7.40
2022-10-12T06:14:06.247Z,8.30
2022-10-12T06:16:32.854Z,8.80
2022-10-12T06:18:59.727Z,7.80
2022-10-12T06:21:33.350Z,7.32
2022-10-12T06:24:03.173Z,8.10
2022-10-12T06:26:29.812Z,9.02
2022-10-12T06:28:56.519Z,8.43
2022-10-12T06:31:23.442Z,8.32
2022-10-12T06:33:51.012Z,8.73
2022-10-12T06:36:17.878Z,9.18
2022-10-12T06:38:44.452Z,8.48
2022-10-12T06:41:11.226Z,8.18
2022-10-12T06:43:37.862Z,8.25
2022-10-12T06:46:04.473Z,9.30
2022-10-12T06:48:31.194Z,9.45
2022-10-12T06:50:58.227Z,9.32
2022-10-12T06:53:28.586Z,9.45
2022-10-12T06:55:55.123Z,9.98
2022-10-12T06:58:21.587Z,9.45
2022-10-12T07:00:48.104Z,10.00
2022-10-12T07:03:14.702Z,10.77
2022-10-12T07:05:41.547Z,10.00
2022-10-12T07:08:08.385Z,10.63
2022-10-12T07:10:35.187Z,9.88
2022-10-12T07:13:01.724Z,10.75
2022-10-12T07:15:28.193Z,12.27
2022-10-12T07:17:54.802Z,12.13
2022-10-12T07:20:21.892Z,12.20
2022-10-12T07:22:48.468Z,13.18
2022-10-12T07:25:15.119Z,12.80
2022-10-12T07:27:42.016Z,13.18
2022-10-12T07:30:09.435Z,12.75
2022-10-12T07:32:36.543Z,13.40
2022-10-12T07:35:03.202Z,12.38
2022-10-12T07:37:29.677Z,11.80
2022-10-12T07:39:57.691Z,10.82
2022-10-12T07:42:25.389Z,11.07
2022-10-12T07:44:52.169Z,11.13
2022-10-12T07:47:19.439Z,10.73
2022-10-12T07:49:46.270Z,10.15
2022-10-12T07:52:13.022Z,9.43
2022-10-12T07:54:39.707Z,10.07
2022-10-12T07:57:06.826Z,10.02
2022-10-12T07:59:33.323Z,9.88
2022-10-12T08:01:59.910Z,10.10
2022-10-12T08:04:26.533Z,10.20
2022-10-12T08:06:53.078Z,9.68
2022-10-12T08:09:19.976Z,9.57
2022-10-12T08:11:46.642Z,9.15
2022-10-12T08:14:15.612Z,9.23
2022-10-12T08:16:45.496Z,8.70
2022-10-12T08:19:13.168Z,7.85
2022-10-12T08:21:41.170Z,9.00
2022-10-12T08:24:09.055Z,8.13
2022-10-12T08:26:38.137Z,8.18
2022-10-12T08:29:06.317Z,9.48
2022-10-12T08:31:32.891Z,9.50
2022-10-12T08:33:59.743Z,8.80
2022-10-12T08:36:29.043Z,9.10
2022-10-12T08:38:55.891Z,9.05
2022-10-12T08:41:56.419Z,9.25
2022-10-12T08:45:12.442Z,8.70
2022-10-12T08:47:46.608Z,9.43
2022-10-12T08:50:27.070Z,9.35
2022-10-12T08:53:11.067Z,9.15
2022-10-12T08:55:44.257Z,9.27
2022-10-12T08:58:23.323Z,9.73
2022-10-12T09:00:55.193Z,8.90
2022-10-12T09:03:39.085Z,8.13
2022-10-12T09:06:20.035Z,8.15
2022-10-12T09:08:52.527Z,8.93
2022-10-12T09:11:38.555Z,8.52
2022-10-12T09:14:23.807Z,8.05
2022-10-12T09:16:52.502Z,7.72
2022-10-12T09:19:22.258Z,8.52
2022-10-12T09:21:50.532Z,7.22
2022-10-12T09:24:28.788Z,8.20
2022-10-12T09:27:00.662Z,7.80
2022-10-12T09:29:31.230Z,9.07
2022-10-12T09:32:00.888Z,7.30
2022-10-12T09:34:27.494Z,8.65
2022-10-12T09:36:55.636Z,7.65
2022-10-12T09:39:29.248Z,7.25
2022-10-12T09:41:56.302Z,6.65
2022-10-12T09:44:36.393Z,6.70
2022-10-12T09:47:24.066Z,6.95
2022-10-12T09:49:52.629Z,7.05
2022-10-12T09:52:24.741Z,6.75
2022-10-12T09:54:54.611Z,6.07
2022-10-12T09:57:25.023Z,6.43
2022-10-12T09:59:52.043Z,6.70
2022-10-12T10:02:23.613Z,5.90
2022-10-12T10:04:51.926Z,5.80
2022-10-12T10:07:31.872Z,5.45
2022-10-12T10:10:14.107Z,6.50
2022-10-12T10:12:56.122Z,6.05
2022-10-12T10:15:28.003Z,5.13
2022-10-12T10:18:00.872Z,6.05
2022-10-12T10:20:34.858Z,5.43
2022-10-12T10:23:03.991Z,4.97
2022-10-12T10:25:30.618Z,5.15
2022-10-12T10:28:20.463Z,6.03
2022-10-12T10:31:00.460Z,6.22
2022-10-12T10:33:27.065Z,5.57
2022-10-12T10:36:19.782Z,5.88
2022-10-12T10:39:06.219Z,6.13
2022-10-12T10:41:41.013Z,4.97
2022-10-12T10:44:25.738Z,5.85
2022-10-12T10:46:54.397Z,5.00
2022-10-12T10:49:36.686Z,5.78
2022-10-12T10:52:05.845Z,6.38
2022-10-12T10:54:35.135Z,5.80
2022-10-12T10:57:06.333Z,5.25
2022-10-12T10:59:35.857Z,5.38
2022-10-12T11:02:16.975Z,5.10
2022-10-12T11:04:47.785Z,5.90
2022-10-12T11:07:26.494Z,5.55
2022-10-12T11:09:57.671Z,5.57
2022-10-12T11:12:31.336Z,4.72
2022-10-12T11:15:19.338Z,5.00
2022-10-12T11:17:50.519Z,5.60
2022-10-12T11:20:29.394Z,5.30
2022-10-12T11:23:05.558Z,5.18
2022-10-12T11:25:48.279Z,4.15
2022-10-12T11:28:16.658Z,5.00
2022-10-12T11:30:50.522Z,4.90
2022-10-12T11:33:27.916Z,4.40
2022-10-12T11:35:56.950Z,3.95
2022-10-12T11:38:38.970Z,5.00
2022-10-12T11:41:34.343Z,3.92
2022-10-12T11:44:15.439Z,3.88
2022-10-12T11:46:49.807Z,3.60
2022-10-12T11:49:25.007Z,4.53
2022-10-12T11:51:54.748Z,3.80
2022-10-12T11:54:34.812Z,4.28
2022-10-12T11:57:10.590Z,3.97
2022-10-12T12:00:25.214Z,3.95
2022-10-12T12:03:18.063Z,3.00
2022-10-12T12:05:44.653Z,4.18
2022-10-12T12:08:39.052Z,3.92
2022-10-12T12:11:19.009Z,3.10
2022-10-12T12:13:46.002Z,2.67
2022-10-12T12:16:12.435Z,3.00
2022-10-12T12:19:13.324Z,3.42
2022-10-12T12:22:18.341Z,3.28
2022-10-12T12:27:30.357Z,2.72
2022-10-12T12:29:58.346Z,2.30
2022-10-12T12:32:27.075Z,2.55
2022-10-12T12:35:00.252Z,3.28
2022-10-12T12:37:33.245Z,2.47
2022-10-12T12:39:59.996Z,2.35
2022-10-12T12:42:34.270Z,2.58
2022-10-12T12:45:38.611Z,2.20
2022-10-12T12:48:09.813Z,2.20
2022-10-12T12:50:38.312Z,2.83
2022-10-12T12:53:18.554Z,2.47
2022-10-12T12:55:47.816Z,2.83
2022-10-12T12:58:47.692Z,2.65
2022-10-12T13:01:55.743Z,2.88
2022-10-12T13:04:44.396Z,3.80
2022-10-12T13:07:35.723Z,2.30
2022-10-12T13:10:02.237Z,2.60
2022-10-12T13:12:31.690Z,2.83
2022-10-12T13:15:16.223Z,2.22
2022-10-12T13:18:34.605Z,2.78
2022-10-12T13:21:06.622Z,2.25
2022-10-12T13:23:33.730Z,2.42
2022-10-12T13:26:08.356Z,1.83
2022-10-12T13:28:39.859Z,2.00
2022-10-12T13:31:16.985Z,2.38
2022-10-12T13:33:57.667Z,2.95
2022-10-12T13:36:27.418Z,2.65
2022-10-12T13:38:59.318Z,1.88
2022-10-12T13:41:31.398Z,1.85
2022-10-12T13:44:00.951Z,2.55
2022-10-12T13:46:48.506Z,2.03
2022-10-12T13:49:22.004Z,2.42
2022-10-12T13:51:55.415Z,1.98
2022-10-12T13:54:26.135Z,1.58
2022-10-12T13:56:59.514Z,1.50
2022-10-12T13:59:30.975Z,1.40
2022-10-12T14:02:02.922Z,1.50
2022-10-12T14:04:35.229Z,2.05
2022-10-12T14:07:07.725Z,1.50
2022-10-12T14:09:42.007Z,1.75
2022-10-12T14:12:10.866Z,1.77
2022-10-12T14:14:39.931Z,1.67
2022-10-12T14:17:06.789Z,2.05
2022-10-12T14:19:41.211Z,1.75
2022-10-12T14:22:08.384Z,1.98
2022-10-12T14:24:36.847Z,1.92
2022-10-12T14:27:08.079Z,2.58
2022-10-12T14:29:45.558Z,2.63
2022-10-12T14:32:12.003Z,1.92
2022-10-12T14:34:47.619Z,2.17
2022-10-12T14:37:17.133Z,2.78
2022-10-12T14:39:49.074Z,1.83
2022-10-12T14:42:35.977Z,2.20
2022-10-12T14:45:22.771Z,1.80
2022-10-12T14:47:49.324Z,1.83
2022-10-12T14:50:19.166Z,1.70
2022-10-12T14:52:49.183Z,1.50
2022-10-12T14:55:24.890Z,1.63
2022-10-12T14:57:51.819Z,1.40
2022-10-12T15:00:21.328Z,1.70
2022-10-12T15:02:48.546Z,1.80
2022-10-12T15:05:17.776Z,1.92
2022-10-12T15:07:45.410Z,1.80
2022-10-12T15:10:12.032Z,1.95
2022-10-12T15:12:38.570Z,2.00
2022-10-12T15:15:28.710Z,1.77
2022-10-12T15:17:55.759Z,2.08
2022-10-12T15:20:22.530Z,1.42
2022-10-12T15:22:49.083Z,1.92
2022-10-12T15:25:50.325Z,1.20
2022-10-12T15:28:16.963Z,1.42
2022-10-12T15:31:11.833Z,1.45
2022-10-12T15:33:31.119Z,1.60
2022-10-12T15:35:57.719Z,1.85
2022-10-12T15:38:24.565Z,2.10
2022-10-12T15:40:52.737Z,1.85
2022-10-12T15:43:19.887Z,1.80
2022-10-12T15:45:46.391Z,2.63
2022-10-12T15:48:12.859Z,1.33
2022-10-12T15:50:43.605Z,2.13
2022-10-12T15:53:24.822Z,1.63
2022-10-12T15:55:55.870Z,2.00
2022-10-12T15:58:22.679Z,1.58
2022-10-12T16:00:49.595Z,1.50
2022-10-12T16:03:24.557Z,1.52
2022-10-12T16:05:52.401Z,1.60
2022-10-12T16:08:18.998Z,1.77
2022-10-12T16:10:46.207Z,1.50
2022-10-12T16:13:13.619Z,1.67
2022-10-12T16:15:41.622Z,1.42
2022-10-12T16:18:08.465Z,1.40
2022-10-12T16:20:37.538Z,1.33
2022-10-12T16:23:06.963Z,1.10
2022-10-12T16:25:35.127Z,1.40
2022-10-12T16:28:01.962Z,1.52
2022-10-12T16:30:28.610Z,1.23
2022-10-12T16:32:55.264Z,2.20
2022-10-12T16:35:22.516Z,1.17
2022-10-12T16:37:49.058Z,1.55
2022-10-12T16:40:16.007Z,1.75
2022-10-12T16:42:43.198Z,1.50
2022-10-12T16:45:10.833Z,2.90
2022-10-12T16:47:42.757Z,2.50
2022-10-12T16:50:10.150Z,2.20
2022-10-12T16:52:36.665Z,1.98
2022-10-12T16:55:03.518Z,1.52
2022-10-12T16:57:30.170Z,2.38
2022-10-12T16:59:56.776Z,1.92
2022-10-12T17:02:23.302Z,1.95
2022-10-12T17:04:49.854Z,2.38
2022-10-12T17:07:17.131Z,1.95
2022-10-12T17:09:43.940Z,1.80
2022-10-12T17:12:10.538Z,2.17
2022-10-12T17:14:37.847Z,1.75
2022-10-12T17:17:05.784Z,2.30
2022-10-12T17:19:40.795Z,2.40
2022-10-12T17:22:10.049Z,2.35
2022-10-12T17:24:39.042Z,2.60
2022-10-12T17:27:07.993Z,2.70
2022-10-12T17:29:37.570Z,2.67
2022-10-12T17:32:04.245Z,3.35
2022-10-12T17:34:34.433Z,3.13
2022-10-12T17:37:02.307Z,3.33
2022-10-12T17:39:31.246Z,2.33
2022-10-12T17:41:57.778Z,2.50
2022-10-12T17:44:24.276Z,2.58
2022-10-12T17:46:50.808Z,3.45
2022-10-12T17:49:24.272Z,6.13
2022-10-12T17:51:51.562Z,4.15
2022-10-12T17:54:18.859Z,3.35
2022-10-12T17:56:45.595Z,3.47
2022-10-12T17:59:14.722Z,2.75
2022-10-12T18:01:41.498Z,3.42
2022-10-12T18:04:09.067Z,2.55
2022-10-12T18:06:35.602Z,2.75
2022-10-12T18:09:04.515Z,3.97
2022-10-12T18:11:31.401Z,3.20
2022-10-12T18:13:58.243Z,4.03
2022-10-12T18:16:27.918Z,2.63
2022-10-12T18:18:55.613Z,3.35
2022-10-12T18:21:24.850Z,3.10
2022-10-12T18:23:51.938Z,3.80
2022-10-12T18:26:20.010Z,3.50
2022-10-12T18:28:48.056Z,3.33
2022-10-12T18:31:22.699Z,3.55
2022-10-12T18:33:49.875Z,2.75
2022-10-12T18:36:17.427Z,6.65
2022-10-12T18:38:44.037Z,4.32
2022-10-12T18:41:14.220Z,4.80
2022-10-12T18:43:41.318Z,2.80
2022-10-12T18:46:14.066Z,4.88
2022-10-12T18:48:41.247Z,3.95
2022-10-12T18:51:23.850Z,4.03
2022-10-12T18:53:50.771Z,2.85
2022-10-12T18:56:19.161Z,2.72
2022-10-12T18:58:46.232Z,2.53
2022-10-12T19:01:18.832Z,3.20
2022-10-12T19:03:46.215Z,2.90
2022-10-12T19:06:15.673Z,2.88
2022-10-12T19:08:45.789Z,2.67
2022-10-12T19:11:13.435Z,2.63
2022-10-12T19:13:41.106Z,2.65
2022-10-12T19:16:11.018Z,2.65
2022-10-12T19:18:39.095Z,3.75
2022-10-12T19:21:15.852Z,2.15
2022-10-12T19:23:43.524Z,3.03
2022-10-12T19:26:13.783Z,2.92
2022-10-12T19:28:44.594Z,3.08
2022-10-12T19:31:18.014Z,2.85
2022-10-12T19:33:47.837Z,4.15
2022-10-12T19:36:16.897Z,3.55
2022-10-12T19:38:45.933Z,2.97
2022-10-12T19:41:13.341Z,3.05
2022-10-12T19:43:40.010Z,2.42
2022-10-12T19:46:08.858Z,3.35
2022-10-12T19:48:45.513Z,3.30
2022-10-12T19:51:14.084Z,2.88
2022-10-12T19:53:46.837Z,3.33
2022-10-12T19:56:16.808Z,3.55
2022-10-12T19:58:45.826Z,2.83
2022-10-12T20:01:15.705Z,3.25
2022-10-12T20:03:47.453Z,3.50
2022-10-12T20:06:14.562Z,3.10
2022-10-12T20:08:42.575Z,2.92
2022-10-12T20:11:15.503Z,3.10
2022-10-12T20:13:45.837Z,3.92
2022-10-12T20:16:13.440Z,3.03
2022-10-12T20:18:40.229Z,4.20
2022-10-12T20:21:09.035Z,3.30
2022-10-12T20:23:36.612Z,3.35
2022-10-12T20:26:09.414Z,3.65
2022-10-12T20:28:37.727Z,3.53
2022-10-12T20:31:07.396Z,3.30
2022-10-12T20:33:39.121Z,4.20
2022-10-12T20:36:18.445Z,3.63
2022-10-12T20:38:45.241Z,3.47
2022-10-12T20:41:14.145Z,2.83
2022-10-12T20:43:40.784Z,4.28
2022-10-12T20:46:11.360Z,4.38
2022-10-12T20:48:40.011Z,5.15
2022-10-12T20:51:08.326Z,4.50
2022-10-12T20:53:35.495Z,4.47
2022-10-12T20:56:06.471Z,5.22
2022-10-12T20:58:33.042Z,4.60
2022-10-12T21:01:14.073Z,3.13
2022-10-12T21:03:42.105Z,4.25
2022-10-12T21:06:12.064Z,5.93
2022-10-12T21:08:39.003Z,5.53
2022-10-12T21:11:06.446Z,4.10
2022-10-12T21:13:35.202Z,3.78
2022-10-12T21:16:01.992Z,4.03
2022-10-12T21:18:32.830Z,3.97
2022-10-12T21:21:11.701Z,3.83
2022-10-12T21:23:41.988Z,3.78
2022-10-12T21:26:19.926Z,7.75
2022-10-12T21:28:47.114Z,6.07
2022-10-12T21:31:14.484Z,6.72
2022-10-12T21:33:41.769Z,11.02
2022-10-12T21:36:20.396Z,7.03
2022-10-12T21:38:47.680Z,8.82
2022-10-12T21:41:15.713Z,5.53
2022-10-12T21:43:43.275Z,6.65
2022-10-12T21:46:18.749Z,12.63
2022-10-12T21:48:46.718Z,5.22
2022-10-12T21:51:13.690Z,4.38
2022-10-12T21:53:40.655Z,4.35
2022-10-12T21:56:14.287Z,2.72
2022-10-12T21:58:41.196Z,3.08
2022-10-12T22:01:16.349Z,3.03
2022-10-12T22:03:51.569Z,2.67
2022-10-12T22:06:20.677Z,4.05
2022-10-12T22:08:52.415Z,2.97
2022-10-12T22:11:19.217Z,2.92
2022-10-12T22:13:45.944Z,5.07
2022-10-12T22:16:14.935Z,2.50
2022-10-12T22:18:42.134Z,5.30
2022-10-12T22:21:19.001Z,7.95
2022-10-12T22:23:45.799Z,2.72
2022-10-12T22:26:18.290Z,4.55
2022-10-12T22:28:45.262Z,3.00
2022-10-12T22:31:13.807Z,3.42
2022-10-12T22:33:40.886Z,2.78
2022-10-12T22:36:11.626Z,2.67
2022-10-12T22:38:38.221Z,2.70
2022-10-12T22:41:07.121Z,3.05
2022-10-12T22:43:34.896Z,3.22
2022-10-12T22:46:01.988Z,3.42
2022-10-12T22:48:29.239Z,19.10
2022-10-12T22:50:55.981Z,3.83
2022-10-12T22:53:24.926Z,3.05
2022-10-12T22:56:17.975Z,3.60
2022-10-12T22:58:47.391Z,4.22
2022-10-12T23:01:19.831Z,4.70
2022-10-12T23:03:46.389Z,5.03
2022-10-12T23:06:14.607Z,5.63
2022-10-12T23:08:41.353Z,4.43
2022-10-12T23:11:15.935Z,4.10
2022-10-12T23:13:43.840Z,4.35
2022-10-12T23:16:19.791Z,3.72
2022-10-12T23:18:46.949Z,4.55
2022-10-12T23:21:19.728Z,4.50
2022-10-12T23:23:46.347Z,4.07
2022-10-12T23:26:19.698Z,4.22
2022-10-12T23:28:47.429Z,4.67
2022-10-12T23:31:16.052Z,4.15
2022-10-12T23:33:42.705Z,4.13
2022-10-12T23:36:14.526Z,4.05
2022-10-12T23:38:42.005Z,4.20
2022-10-12T23:41:09.552Z,4.10
2022-10-12T23:43:36.091Z,3.67
2022-10-12T23:46:03.877Z,4.20
2022-10-12T23:48:31.046Z,3.97
2022-10-12T23:50:57.531Z,4.45
2022-10-12T23:53:25.544Z,4.10
2022-10-12T23:55:52.987Z,4.15
2022-10-12T23:58:19.964Z,5.13
